createdAt,value
2022-10-24T00:01:19.754Z,13.80
2022-10-24T00:03:47.412Z,14.13
2022-10-24T00:06:15.087Z,13.60
2022-10-24T00:08:43.568Z,13.75
2022-10-24T00:11:13.966Z,14.27
2022-10-24T00:13:42.413Z,13.80
2022-10-24T00:16:10.077Z,13.60
2022-10-24T00:18:37.579Z,14.23
2022-10-24T00:21:05.832Z,14.95
2022-10-24T00:23:33.168Z,13.55
2022-10-24T00:26:01.800Z,15.20
2022-10-24T00:28:31.638Z,14.15
2022-10-24T00:30:58.998Z,13.00
2022-10-24T00:33:26.778Z,14.45
2022-10-24T00:35:54.164Z,13.35
2022-10-24T00:38:21.575Z,12.82
2022-10-24T00:40:48.933Z,12.90
2022-10-24T00:43:17.323Z,12.40
2022-10-24T00:45:48.240Z,13.00
2022-10-24T00:48:23.341Z,12.88
2022-10-24T00:50:52.702Z,12.35
2022-10-24T00:53:21.460Z,11.55
2022-10-24T00:55:51.268Z,12.50
2022-10-24T00:58:20.333Z,11.70
2022-10-24T01:00:49.345Z,11.68
2022-10-24T01:03:16.744Z,11.20
2022-10-24T01:05:54.786Z,10.95
2022-10-24T01:08:29.258Z,10.90
2022-10-24T01:11:04.257Z,11.60
2022-10-24T01:13:39.085Z,10.80
2022-10-24T01:16:12.978Z,11.23
2022-10-24T01:21:24.706Z,11.13
2022-10-24T01:24:02.481Z,9.27
2022-10-24T01:26:41.500Z,11.00
2022-10-24T01:29:14.921Z,10.27
2022-10-24T01:31:46.904Z,10.38
2022-10-24T01:34:18.659Z,10.20
2022-10-24T01:36:51.293Z,10.15
2022-10-24T01:39:21.373Z,9.75
2022-10-24T01:41:49.180Z,10.70
2022-10-24T01:44:19.645Z,9.65
2022-10-24T01:46:52.349Z,10.98
2022-10-24T01:49:21.760Z,10.55
2022-10-24T01:51:52.228Z,10.20
2022-10-24T01:54:19.750Z,9.68
2022-10-24T01:56:47.228Z,10.65
2022-10-24T01:59:45.626Z,10.82
2022-10-24T02:02:17.264Z,9.80
2022-10-24T02:04:50.422Z,10.57
2022-10-24T02:07:19.777Z,9.55
2022-10-24T02:09:50.166Z,10.15
2022-10-24T02:12:18.515Z,10.20
2022-10-24T02:14:48.519Z,10.35
2022-10-24T02:17:18.087Z,9.80
2022-10-24T02:19:46.009Z,10.68
2022-10-24T02:22:22.168Z,10.52
2022-10-24T02:24:52.936Z,10.73
2022-10-24T02:27:23.892Z,11.10
2022-10-24T02:29:54.137Z,10.88
2022-10-24T02:32:27.627Z,11.00
2022-10-24T02:34:55.598Z,10.98
2022-10-24T02:37:23.274Z,10.82
2022-10-24T02:39:51.340Z,11.60
2022-10-24T02:42:19.773Z,11.10
2022-10-24T02:44:48.166Z,10.55
2022-10-24T02:47:16.226Z,10.55
2022-10-24T02:49:44.914Z,10.95
2022-10-24T02:52:12.431Z,10.38
2022-10-24T02:54:39.786Z,10.00
2022-10-24T02:57:07.136Z,10.73
2022-10-24T02:59:34.468Z,10.70
2022-10-24T03:02:01.816Z,10.48
2022-10-24T03:04:29.166Z,11.00
2022-10-24T03:06:57.833Z,10.57
2022-10-24T03:09:25.189Z,10.23
2022-10-24T03:11:52.540Z,10.35
2022-10-24T03:14:19.885Z,10.85
2022-10-24T03:16:47.217Z,10.38
2022-10-24T03:19:14.546Z,10.07
2022-10-24T03:21:42.168Z,9.98
2022-10-24T03:24:11.230Z,9.95
2022-10-24T03:26:38.576Z,9.80
2022-10-24T03:29:06.060Z,9.10
2022-10-24T03:31:34.225Z,9.40
2022-10-24T03:34:01.560Z,9.40
2022-10-24T03:36:29.018Z,9.20
2022-10-24T03:38:56.369Z,9.07
2022-10-24T03:41:25.017Z,9.10
2022-10-24T03:43:52.528Z,8.68
2022-10-24T03:46:19.871Z,9.35
2022-10-24T03:48:47.219Z,9.50
2022-10-24T03:51:15.452Z,8.38
2022-10-24T03:53:42.805Z,8.32
2022-10-24T03:56:10.168Z,8.20
2022-10-24T03:58:38.840Z,8.10
2022-10-24T04:01:06.384Z,7.40
2022-10-24T04:03:33.804Z,8.10
2022-10-24T04:06:01.153Z,7.32
2022-10-24T04:08:28.493Z,7.38
2022-10-24T04:10:55.828Z,7.45
2022-10-24T04:13:23.185Z,7.30
2022-10-24T04:15:51.842Z,7.57
2022-10-24T04:18:19.268Z,7.82
2022-10-24T04:20:46.620Z,8.02
2022-10-24T04:23:14.077Z,7.18
2022-10-24T04:25:41.845Z,7.75
2022-10-24T04:28:09.172Z,7.60
2022-10-24T04:30:36.537Z,8.07
2022-10-24T04:33:05.366Z,8.20
2022-10-24T04:35:32.701Z,8.13
2022-10-24T04:38:00.048Z,8.00
2022-10-24T04:40:27.389Z,8.32
2022-10-24T04:42:54.729Z,7.90
2022-10-24T04:45:22.066Z,7.88
2022-10-24T04:47:49.405Z,7.40
2022-10-24T04:50:18.332Z,7.47
2022-10-24T04:52:45.691Z,8.05
2022-10-24T04:55:13.062Z,7.35
2022-10-24T04:57:40.428Z,8.25
2022-10-24T05:00:09.131Z,7.97
2022-10-24T05:02:36.658Z,7.70
2022-10-24T05:05:04.172Z,7.60
2022-10-24T05:07:32.829Z,7.65
2022-10-24T05:10:00.181Z,7.55
2022-10-24T05:12:27.508Z,7.63
2022-10-24T05:14:54.870Z,7.70
2022-10-24T05:17:22.230Z,7.65
2022-10-24T05:19:50.712Z,6.78
2022-10-24T05:22:18.060Z,6.78
2022-10-24T05:24:46.718Z,7.53
2022-10-24T05:27:14.086Z,7.15
2022-10-24T05:29:41.439Z,7.45
2022-10-24T05:32:08.974Z,7.82
2022-10-24T05:34:36.295Z,7.20
2022-10-24T05:37:03.642Z,7.82
2022-10-24T05:39:30.993Z,7.07
2022-10-24T05:41:59.648Z,7.03
2022-10-24T05:44:27.106Z,7.32
2022-10-24T05:46:54.528Z,7.20
2022-10-24T05:49:21.880Z,7.57
2022-10-24T05:51:49.309Z,7.03
2022-10-24T05:54:16.701Z,7.82
2022-10-24T05:56:44.057Z,7.00
2022-10-24T05:59:12.736Z,7.65
2022-10-24T06:01:40.561Z,7.28
2022-10-24T06:04:11.311Z,7.15
2022-10-24T06:06:41.125Z,7.35
2022-10-24T06:09:08.854Z,7.25
2022-10-24T06:11:36.421Z,6.80
2022-10-24T06:14:04.247Z,6.80
2022-10-24T06:16:34.118Z,7.20
2022-10-24T06:19:01.568Z,7.55
2022-10-24T06:21:28.916Z,7.57
2022-10-24T06:23:56.262Z,7.30
2022-10-24T06:26:24.238Z,8.07
2022-10-24T06:28:51.749Z,6.90
2022-10-24T06:31:20.594Z,7.10
2022-10-24T06:33:49.391Z,7.20
2022-10-24T06:36:16.746Z,7.40
2022-10-24T06:38:44.074Z,7.30
2022-10-24T06:41:12.175Z,7.05
2022-10-24T06:43:41.329Z,7.70
2022-10-24T06:46:09.036Z,7.10
2022-10-24T06:48:37.236Z,7.43
2022-10-24T06:51:06.093Z,7.88
2022-10-24T06:53:33.476Z,9.05
2022-10-24T06:56:01.065Z,10.10
2022-10-24T06:58:31.622Z,9.25
2022-10-24T07:00:59.244Z,8.18
2022-10-24T07:03:26.870Z,7.85
2022-10-24T07:05:54.223Z,7.53
2022-10-24T07:08:23.168Z,6.65
2022-10-24T07:10:50.519Z,6.65
2022-10-24T07:13:17.869Z,6.75
2022-10-24T07:15:45.483Z,6.15
2022-10-24T07:18:15.794Z,6.35
2022-10-24T07:20:43.237Z,6.93
2022-10-24T07:23:10.562Z,6.43
2022-10-24T07:25:40.091Z,6.00
2022-10-24T07:28:08.019Z,6.43
2022-10-24T07:30:35.920Z,6.30
2022-10-24T07:33:03.258Z,6.30
2022-10-24T07:35:30.593Z,5.78
2022-10-24T07:37:58.230Z,5.93
2022-10-24T07:40:25.569Z,5.72
2022-10-24T07:42:54.283Z,5.68
2022-10-24T07:45:21.639Z,5.50
2022-10-24T07:47:49.376Z,6.07
2022-10-24T07:50:17.200Z,6.35
2022-10-24T07:52:44.558Z,5.88
2022-10-24T07:55:12.044Z,5.10
2022-10-24T07:57:39.466Z,5.28
2022-10-24T08:00:09.608Z,4.82
2022-10-24T08:02:39.981Z,5.40
2022-10-24T08:05:08.227Z,5.93
2022-10-24T08:07:36.261Z,4.85
2022-10-24T08:10:04.490Z,4.85
2022-10-24T08:12:31.849Z,4.65
2022-10-24T08:14:59.180Z,4.85
2022-10-24T08:17:27.938Z,4.80
2022-10-24T08:19:55.451Z,4.50
2022-10-24T08:22:22.804Z,3.95
2022-10-24T08:24:50.155Z,4.57
2022-10-24T08:27:17.518Z,4.50
2022-10-24T08:29:44.869Z,4.20
2022-10-24T08:32:12.229Z,4.40
2022-10-24T08:34:40.979Z,3.72
2022-10-24T08:37:08.389Z,4.00
2022-10-24T08:39:35.779Z,3.53
2022-10-24T08:42:05.264Z,4.10
2022-10-24T08:44:35.534Z,3.92
2022-10-24T08:47:05.098Z,4.10
2022-10-24T08:49:36.912Z,3.70
2022-10-24T08:52:12.204Z,3.55
2022-10-24T08:54:41.478Z,3.75
2022-10-24T08:57:11.660Z,4.20
2022-10-24T08:59:39.668Z,4.03
2022-10-24T09:02:15.064Z,4.20
2022-10-24T09:04:46.805Z,3.53
2022-10-24T09:07:19.622Z,3.78
2022-10-24T09:09:49.698Z,3.77
2022-10-24T09:12:18.469Z,4.05
2022-10-24T09:14:48.098Z,3.30
2022-10-24T09:19:50.828Z,3.60
2022-10-24T09:22:20.579Z,3.35
2022-10-24T09:24:51.394Z,3.58
2022-10-24T09:29:53.504Z,4.20
2022-10-24T09:32:22.305Z,3.80
2022-10-24T09:34:50.046Z,3.53
2022-10-24T09:37:37.656Z,3.30
2022-10-24T09:40:19.544Z,3.60
2022-10-24T09:43:00.210Z,3.83
2022-10-24T09:45:35.802Z,3.60
2022-10-24T09:48:06.330Z,3.65
2022-10-24T09:50:35.502Z,3.63
2022-10-24T09:53:05.286Z,3.13
2022-10-24T09:55:34.306Z,3.50
2022-10-24T09:58:05.253Z,3.38
2022-10-24T10:00:34.499Z,3.85
2022-10-24T10:03:05.823Z,4.38
2022-10-24T10:05:44.427Z,4.03
2022-10-24T10:08:18.754Z,3.60
2022-10-24T10:10:57.046Z,3.47
2022-10-24T10:13:27.495Z,3.20
2022-10-24T10:15:56.618Z,3.30
2022-10-24T10:18:37.025Z,3.22
2022-10-24T10:21:10.940Z,4.43
2022-10-24T10:23:41.413Z,3.65
2022-10-24T10:26:14.767Z,3.00
2022-10-24T10:28:58.971Z,3.00
2022-10-24T10:31:29.852Z,3.10
2022-10-24T10:34:20.481Z,3.60
2022-10-24T10:37:00.142Z,3.20
2022-10-24T10:39:45.032Z,3.45
2022-10-24T10:42:17.424Z,3.35
2022-10-24T10:44:54.602Z,3.67
2022-10-24T10:47:35.101Z,3.28
2022-10-24T10:50:03.183Z,3.53
2022-10-24T10:52:32.212Z,3.13
2022-10-24T10:55:10.669Z,3.22
2022-10-24T10:57:43.044Z,3.00
2022-10-24T11:00:13.355Z,3.25
2022-10-24T11:03:04.393Z,2.88
2022-10-24T11:05:40.265Z,3.90
2022-10-24T11:08:19.324Z,3.45
2022-10-24T11:10:52.642Z,3.53
2022-10-24T11:13:24.875Z,3.10
2022-10-24T11:15:55.126Z,3.47
2022-10-24T11:18:27.858Z,3.13
2022-10-24T11:21:00.752Z,3.67
2022-10-24T11:23:32.432Z,3.50
2022-10-24T11:26:03.895Z,3.53
2022-10-24T11:28:34.441Z,3.22
2022-10-24T11:31:05.326Z,3.47
2022-10-24T11:33:36.040Z,3.05
2022-10-24T11:36:09.734Z,3.28
2022-10-24T11:38:41.978Z,3.13
2022-10-24T11:41:43.137Z,3.25
2022-10-24T11:44:24.482Z,3.72
2022-10-24T11:46:57.205Z,2.70
2022-10-24T11:49:27.022Z,3.10
2022-10-24T11:51:57.587Z,3.08
2022-10-24T11:54:29.826Z,3.00
2022-10-24T11:56:59.838Z,3.15
2022-10-24T11:59:30.555Z,3.05
2022-10-24T12:02:16.338Z,3.63
2022-10-24T12:05:02.667Z,2.88
2022-10-24T12:07:49.398Z,3.15
2022-10-24T12:10:32.707Z,2.72
2022-10-24T12:13:15.568Z,2.20
2022-10-24T12:15:51.105Z,3.20
2022-10-24T12:18:29.425Z,2.97
2022-10-24T12:20:59.319Z,2.72
2022-10-24T12:23:28.349Z,3.10
2022-10-24T12:26:03.696Z,3.17
2022-10-24T12:28:31.116Z,3.05
2022-10-24T12:31:25.319Z,2.95
2022-10-24T12:34:27.629Z,2.90
2022-10-24T12:37:04.775Z,2.90
2022-10-24T12:39:34.507Z,3.30
2022-10-24T12:42:01.908Z,3.28
2022-10-24T12:44:51.378Z,3.22
2022-10-24T12:47:38.435Z,2.83
2022-10-24T12:51:03.449Z,3.30
2022-10-24T12:53:39.120Z,3.47
2022-10-24T12:56:16.005Z,3.47
2022-10-24T12:58:45.454Z,3.42
2022-10-24T13:01:24.838Z,2.90
2022-10-24T13:04:09.477Z,2.78
2022-10-24T13:06:41.014Z,3.42
2022-10-24T13:09:25.676Z,3.72
2022-10-24T13:12:03.152Z,3.42
2022-10-24T13:14:48.468Z,3.40
2022-10-24T13:17:21.336Z,3.25
2022-10-24T13:20:03.005Z,3.80
2022-10-24T13:22:34.797Z,3.60
2022-10-24T13:25:19.465Z,3.63
2022-10-24T13:27:46.903Z,2.90
2022-10-24T13:30:25.269Z,2.72
2022-10-24T13:32:52.791Z,3.08
2022-10-24T13:35:25.809Z,2.92
2022-10-24T13:38:00.509Z,3.38
2022-10-24T13:40:31.431Z,3.30
2022-10-24T13:43:02.959Z,3.15
2022-10-24T13:45:40.249Z,2.97
2022-10-24T13:48:13.150Z,3.00
2022-10-24T13:50:51.699Z,3.28
2022-10-24T13:53:29.508Z,2.80
2022-10-24T13:56:07.791Z,3.28
2022-10-24T13:58:41.019Z,3.30
2022-10-24T14:01:18.266Z,3.67
2022-10-24T14:03:46.544Z,3.30
2022-10-24T14:06:15.529Z,3.17
2022-10-24T14:08:52.461Z,2.90
2022-10-24T14:11:28.214Z,3.15
2022-10-24T14:13:56.550Z,3.10
2022-10-24T14:16:25.710Z,3.20
2022-10-24T14:18:53.482Z,3.60
2022-10-24T14:21:23.529Z,3.22
2022-10-24T14:23:55.854Z,3.20
2022-10-24T14:26:23.611Z,3.08
2022-10-24T14:28:58.692Z,3.30
2022-10-24T14:31:30.901Z,3.20
2022-10-24T14:33:59.019Z,3.28
2022-10-24T14:36:30.543Z,3.35
2022-10-24T14:39:00.860Z,3.30
2022-10-24T14:41:30.025Z,3.42
2022-10-24T14:43:58.897Z,3.17
2022-10-24T14:46:35.233Z,3.45
2022-10-24T14:49:20.607Z,3.97
2022-10-24T14:51:54.338Z,3.20
2022-10-24T14:56:50.267Z,3.45
2022-10-24T14:59:23.112Z,3.55
2022-10-24T15:01:55.660Z,3.63
2022-10-24T15:04:30.961Z,3.50
2022-10-24T15:07:14.097Z,3.70
2022-10-24T15:09:52.372Z,3.80
2022-10-24T15:12:26.449Z,3.83
2022-10-24T15:14:54.338Z,3.53
2022-10-24T15:17:30.013Z,3.30
2022-10-24T15:20:01.977Z,3.83
2022-10-24T15:22:32.796Z,4.05
2022-10-24T15:25:01.902Z,3.80
2022-10-24T15:27:31.577Z,3.60
2022-10-24T15:29:58.935Z,3.80
2022-10-24T15:32:26.469Z,3.60
2022-10-24T15:34:55.378Z,3.90
2022-10-24T15:37:24.239Z,3.83
2022-10-24T15:39:53.663Z,4.07
2022-10-24T15:42:22.653Z,4.07
2022-10-24T15:44:50.480Z,4.82
2022-10-24T15:47:17.831Z,3.63
2022-10-24T15:49:45.168Z,11.13
2022-10-24T15:52:16.174Z,9.10
2022-10-24T15:54:43.523Z,4.82
2022-10-24T15:57:13.105Z,5.72
2022-10-24T15:59:40.609Z,5.95
2022-10-24T16:02:13.515Z,4.55
2022-10-24T16:04:41.108Z,3.67
2022-10-24T16:09:36.712Z,3.70
2022-10-24T16:12:04.266Z,3.25
2022-10-24T16:14:32.987Z,3.15
2022-10-24T16:17:00.337Z,3.35
2022-10-24T16:19:27.932Z,3.17
2022-10-24T16:21:58.530Z,3.42
2022-10-24T16:24:26.352Z,3.53
2022-10-24T16:26:53.760Z,3.55
2022-10-24T16:29:21.130Z,3.40
2022-10-24T16:31:50.734Z,3.15
2022-10-24T16:34:18.307Z,2.88
2022-10-24T16:36:45.672Z,3.35
2022-10-24T16:39:14.362Z,3.70
2022-10-24T16:41:45.802Z,3.38
2022-10-24T16:44:13.267Z,3.47
2022-10-24T16:46:40.646Z,3.00
2022-10-24T16:49:09.423Z,2.88
2022-10-24T16:51:40.526Z,2.90
2022-10-24T16:56:37.978Z,2.92
2022-10-24T16:59:05.399Z,3.50
2022-10-24T17:01:32.868Z,3.08
2022-10-24T17:04:01.203Z,3.15
2022-10-24T17:06:29.847Z,3.20
2022-10-24T17:08:57.176Z,3.13
2022-10-24T17:14:13.850Z,3.83
2022-10-24T17:16:41.650Z,2.90
2022-10-24T17:19:17.238Z,3.60
2022-10-24T17:21:48.038Z,3.40
2022-10-24T17:24:17.067Z,3.03
2022-10-24T17:26:44.741Z,3.00
2022-10-24T17:29:13.755Z,2.65
2022-10-24T17:31:41.240Z,2.53
2022-10-24T17:34:10.215Z,2.72
2022-10-24T17:36:39.109Z,2.97
2022-10-24T17:39:13.207Z,2.97
2022-10-24T17:41:41.531Z,2.63
2022-10-24T17:44:13.614Z,2.85
2022-10-24T17:46:41.177Z,2.67
2022-10-24T17:49:10.581Z,2.65
2022-10-24T17:51:40.850Z,2.70
2022-10-24T17:54:10.716Z,2.92
2022-10-24T17:56:38.069Z,2.90
2022-10-24T17:59:05.417Z,2.40
2022-10-24T18:01:32.787Z,3.40
2022-10-24T18:04:00.177Z,2.50
2022-10-24T18:06:27.519Z,3.05
2022-10-24T18:08:54.915Z,2.70
2022-10-24T18:11:23.619Z,2.55
2022-10-24T18:13:51.001Z,2.50
2022-10-24T18:16:19.838Z,2.70
2022-10-24T18:18:48.443Z,2.65
2022-10-24T18:23:46.367Z,2.88
2022-10-24T18:26:17.791Z,2.28
2022-10-24T18:28:47.782Z,2.60
2022-10-24T18:31:16.613Z,2.80
2022-10-24T18:33:44.481Z,2.95
2022-10-24T18:36:13.706Z,3.00
2022-10-24T18:38:41.903Z,2.90
2022-10-24T18:41:25.282Z,3.25
2022-10-24T18:43:54.585Z,2.97
2022-10-24T18:46:22.710Z,2.50
2022-10-24T18:48:50.543Z,2.80
2022-10-24T18:51:29.625Z,2.53
2022-10-24T18:53:58.884Z,2.65
2022-10-24T18:56:26.511Z,2.50
2022-10-24T18:58:57.771Z,2.67
2022-10-24T19:01:29.641Z,2.65
2022-10-24T19:03:58.532Z,2.83
2022-10-24T19:06:27.545Z,2.70
2022-10-24T19:08:55.058Z,2.70
2022-10-24T19:11:24.561Z,3.10
2022-10-24T19:13:52.188Z,2.92
2022-10-24T19:16:22.215Z,2.65
2022-10-24T19:18:52.878Z,2.50
2022-10-24T19:21:20.834Z,2.65
2022-10-24T19:23:49.325Z,2.63
2022-10-24T19:26:16.713Z,2.90
2022-10-24T19:28:44.290Z,2.42
2022-10-24T19:31:12.431Z,2.65
2022-10-24T19:33:42.005Z,2.60
2022-10-24T19:36:11.539Z,2.58
2022-10-24T19:38:40.676Z,2.75
2022-10-24T19:41:11.231Z,2.85
2022-10-24T19:43:38.899Z,3.42
2022-10-24T19:46:19.496Z,3.35
2022-10-24T19:48:49.737Z,2.90
2022-10-24T19:51:18.394Z,2.80
2022-10-24T19:53:47.049Z,3.38
2022-10-24T19:56:17.405Z,2.80
2022-10-24T19:58:46.655Z,3.35
2022-10-24T20:01:15.980Z,3.33
2022-10-24T20:03:45.222Z,2.58
2022-10-24T20:06:14.642Z,2.92
2022-10-24T20:08:42.448Z,2.83
2022-10-24T20:11:10.505Z,3.30
2022-10-24T20:13:37.907Z,3.05
2022-10-24T20:16:06.832Z,3.45
2022-10-24T20:18:35.682Z,3.25
2022-10-24T20:21:03.969Z,3.00
2022-10-24T20:23:32.894Z,3.15
2022-10-24T20:26:02.026Z,3.10
2022-10-24T20:28:29.655Z,3.40
2022-10-24T20:30:57.103Z,4.15
2022-10-24T20:33:24.449Z,3.50
2022-10-24T20:35:51.808Z,4.60
2022-10-24T20:38:19.269Z,4.28
2022-10-24T20:40:47.928Z,3.50
2022-10-24T20:43:16.949Z,3.65
2022-10-24T20:45:44.303Z,3.00
2022-10-24T20:48:11.677Z,3.25
2022-10-24T20:50:39.011Z,3.50
2022-10-24T20:53:06.359Z,3.30
2022-10-24T20:55:44.221Z,3.80
2022-10-24T20:58:14.068Z,3.40
2022-10-24T21:03:15.160Z,3.38
2022-10-24T21:05:42.549Z,3.60
2022-10-24T21:08:09.921Z,3.70
2022-10-24T21:10:37.269Z,3.42
2022-10-24T21:13:04.649Z,3.20
2022-10-24T21:15:33.316Z,2.97
2022-10-24T21:18:00.769Z,3.60
2022-10-24T21:20:28.148Z,3.90
2022-10-24T21:22:55.484Z,3.60
2022-10-24T21:25:22.841Z,3.55
2022-10-24T21:27:50.251Z,3.45
2022-10-24T21:30:17.667Z,3.60
2022-10-24T21:32:46.332Z,3.70
2022-10-24T21:35:13.726Z,3.40
2022-10-24T21:37:41.068Z,3.30
2022-10-24T21:40:09.103Z,3.42
2022-10-24T21:42:36.447Z,3.53
2022-10-24T21:45:03.982Z,3.40
2022-10-24T21:47:31.360Z,3.80
2022-10-24T21:49:59.995Z,3.70
2022-10-24T21:52:27.394Z,3.17
2022-10-24T21:54:54.817Z,3.67
2022-10-24T21:57:22.227Z,3.55
2022-10-24T21:59:49.623Z,3.60
2022-10-24T22:02:17.095Z,3.97
2022-10-24T22:04:44.634Z,3.42
2022-10-24T22:07:13.376Z,4.10
2022-10-24T22:09:41.752Z,4.00
2022-10-24T22:12:09.128Z,4.07
2022-10-24T22:14:36.517Z,3.97
2022-10-24T22:17:03.957Z,3.85
2022-10-24T22:19:31.386Z,3.72
2022-10-24T22:21:58.744Z,3.50
2022-10-24T22:24:27.426Z,4.35
2022-10-24T22:26:54.785Z,3.85
2022-10-24T22:29:23.287Z,3.47
2022-10-24T22:31:51.669Z,3.88
2022-10-24T22:34:21.149Z,4.75
2022-10-24T22:36:56.451Z,4.35
2022-10-24T22:39:25.631Z,3.70
2022-10-24T22:41:55.364Z,4.00
2022-10-24T22:44:23.533Z,4.07
2022-10-24T22:47:03.680Z,4.28
2022-10-24T22:49:41.703Z,4.72
2022-10-24T22:52:10.596Z,4.10
2022-10-24T22:54:38.757Z,3.60
2022-10-24T22:57:08.164Z,4.15
2022-10-24T22:59:36.088Z,4.05
2022-10-24T23:02:06.556Z,4.70
2022-10-24T23:04:37.011Z,3.70
2022-10-24T23:07:13.581Z,4.60
2022-10-24T23:09:41.129Z,4.30
2022-10-24T23:12:14.336Z,4.22
2022-10-24T23:14:42.356Z,4.85
2022-10-24T23:17:10.186Z,4.50
2022-10-24T23:19:39.668Z,4.90
2022-10-24T23:22:12.888Z,4.50
2022-10-24T23:24:40.913Z,4.63
2022-10-24T23:27:21.781Z,4.50
2022-10-24T23:29:49.645Z,4.80
2022-10-24T23:32:21.358Z,4.57
2022-10-24T23:34:49.521Z,4.68
2022-10-24T23:37:26.867Z,4.60
2022-10-24T23:39:54.792Z,4.40
2022-10-24T23:42:24.200Z,4.97
2022-10-24T23:44:52.185Z,4.55
2022-10-24T23:47:35.356Z,5.03
2022-10-24T23:50:06.853Z,5.07
2022-10-24T23:52:39.193Z,5.03
2022-10-24T23:55:07.561Z,4.80
2022-10-24T23:57:36.974Z,5.45
